x

South Santa Rosa Is. Ca (46069) Wave Buoy

4:50am - Sat 26th Jul 2014 All times are PDT. -7 hours from GMT.

  • Sig Wave height 5.2ft
  • Peak Period 11s
  • Average Period 8s
  • Wind
    4mph, 7mph gusts
  • Sea Temp 65°f
  • Air Temp 62°f
  • Sea Pressure 1012.8mb
  • South Santa Rosa Is. Ca
  • South Santa Rosa Is. Ca

More Historic Weather Station data

Upgrade to MSW Pro to gain access to the past 30 days of data for over 8000 Wavebouys and Weather Stations around the globe.

Join Pro

Comparision Forecast

View Surf forecast
   
Sat 07/26 4:50am 5ft 11s 8s 4 7 mph 1012.8mb 65f 62f
3:50am 5ft 10s 8s 4 7 mph 1012.8mb 65f 62f
2:50am 5ft 10s 8s 7 9 mph 1012.5mb 65f 62f
1:50am 5.5ft 10s 8s 7 9 mph 1013mb 65f 62f
12:50am 5ft 10s 7s 9 11 mph 1013.1mb 65f 62f
Fri 07/25 11:50pm 6ft 10s 7s 9 11 mph 1013.1mb 65f 63f
10:50pm 5ft 10s 7s 9 13 mph 1013mb 65f 63f
8:50pm 6.5ft 10s 7s 11 16 mph 1012.1mb 65f 63f
7:50pm 6.5ft 10s 7s 13 16 mph 1011.9mb 66f 63f
6:50pm 6.5ft 9s 7s 13 18 mph 1011.6mb 66f 64f
5:50pm 6.5ft 9s 7s 13 16 mph 1011.6mb 66f 64f
4:50pm 6ft 10s 7s 9 11 mph 1012.1mb 66f 64f
3:50pm 6ft 9s 7s 11 13 mph 1012.4mb 66f 64f
2:50pm 6ft 9s 7s 11 13 mph 1012.9mb 65f 64f
1:50pm 5.5ft 8s 6s 11 13 mph 1013.1mb 65f 64f
12:50pm 6ft 9s 7s 9 11 mph 1013.2mb 65f 63f
11:50am 7ft 9s 7s 9 11 mph 1013mb 65f 63f
10:50am 6ft 10s 6s 11 13 mph 1012.9mb 65f 63f
9:50am 6ft 9s 6s 11 16 mph 1012.4mb 65f 63f
8:50am 7ft 9s 6s 13 18 mph 1012.2mb 65f 63f
7:50am 6ft 8s 6s 16 18 mph 1011.8mb 65f 62f
6:50am 7ft 9s 6s 16 20 mph 1011.3mb 65f 63f
5:50am 7ft 9s 6s 18 20 mph 1011.1mb 65f 63f
4:50am 7ft 9s 6s 18 22 mph 1010.8mb 65f 63f
3:50am 7ft 8s 6s 27 31 mph 1009.5mb 65f 64f
2:50am 6.5ft 8s 5s 22 27 mph 1009.8mb 65f 64f
1:50am 7ft 8s 5s 22 29 mph 1009.7mb 65f 64f
12:50am 8ft 8s 6s 25 29 mph 1009.8mb 65f 64f
Thu 07/24 11:50pm 8.5ft 8s 6s 27 34 mph 1009.6mb 65f 64f
10:50pm 8ft 8s 6s 27 31 mph 1009.5mb 65f 64f
9:50pm 8ft 8s 6s 27 31 mph 1010mb 65f 64f
8:50pm 8ft 8s 6s 25 29 mph 1009.3mb 65f 64f
7:50pm 8ft 8s 6s 25 29 mph 1009.1mb 65f 64f
6:50pm 8ft 8s 6s 22 29 mph 1009.1mb 65f 65f
5:50pm 7ft 8s 6s 25 29 mph 1008.9mb 65f 65f
4:50pm 8ft 8s 6s 25 31 mph 1009.1mb 65f 65f
3:50pm 7.5ft 8s 6s 22 29 mph 1009.9mb 65f 65f
2:50pm 8ft 8s 6s 25 29 mph 1010.4mb 65f 65f
1:50pm 8ft 8s 6s 25 31 mph 1010.5mb 65f 65f
12:50pm 8ft 8s 6s 27 31 mph 1010.5mb 65f 65f
11:50am 8ft 8s 6s 25 29 mph 1011mb 65f 65f
10:50am 8ft 8s 6s 25 29 mph 1011.4mb 65f 65f
9:50am 8ft 7s 6s 20 25 mph 1011.8mb 65f 65f
8:50am 8.5ft 8s 6s 22 27 mph 1011.6mb 65f 65f
7:50am 8ft 8s 6s 25 27 mph 1011.3mb 65f 65f
6:50am 8ft 8s 6s 22 29 mph 1011.4mb 65f 65f
5:50am 8.5ft 8s 6s 22 29 mph 1011.2mb 65f 65f
4:50am 8ft 8s 6s 27 34 mph 1010.6mb 65f 65f
3:50am 7.5ft 8s 6s 27 31 mph 1011mb 65f 65f
2:50am 8ft 8s 5s 27 31 mph 1011.6mb 66f 64f
1:50am 8ft 8s 5s 27 34 mph 1011.9mb 66f 65f
12:50am 8ft 7s 5s 29 34 mph 1012.4mb 66f 65f
Wed 07/23 11:50pm 8.5ft 7s 5s 29 36 mph 1012.5mb 66f 65f
10:50pm 8ft 7s 5s 31 36 mph 1012.5mb 66f 65f
9:50pm 7.5ft 6s 5s 34 40 mph 1012.4mb 66f 66f
8:50pm 7ft 7s 5s 29 36 mph 1012.4mb 66f 67f
7:50pm 7ft 6s 5s 27 31 mph 1013.1mb 66f 67f
6:50pm 6.5ft 6s 5s 25 29 mph 1013.3mb 66f 67f
5:50pm 7ft 7s 5s 27 31 mph 1013.7mb 66f 67f
4:50pm 6.5ft 7s 5s 27 31 mph 1013.9mb 66f 67f
3:50pm 7ft 6s 5s 27 34 mph 1014.2mb 66f 67f
2:50pm 5.5ft 7s 5s 25 29 mph 1015.7mb 66f 67f
1:50pm 5.5ft 6s 5s 22 29 mph 1016.2mb 67f 67f
12:50pm 5.5ft 6s 5s 22 29 mph 1016.7mb 67f 67f
11:50am 5ft 6s 5s 22 29 mph 1017.1mb 67f 67f
10:50am 5ft 6s 5s 22 27 mph 1017.3mb 67f 67f
9:50am 5.5ft 6s 5s 27 31 mph 1016.7mb 67f 67f
8:50am 5.5ft 6s 5s 27 34 mph 1016.8mb 67f 67f
7:50am 5.5ft 6s 5s 27 34 mph 1016.4mb 67f 66f
6:50am 5.5ft 6s 5s 29 34 mph 1016.2mb 67f 66f
5:50am 6ft 6s 5s 27 34 mph 1016mb 67f 66f
4:50am 6ft 6s 5s 25 29 mph 1016.1mb 67f 66f
3:50am 6ft 6s 5s 27 29 mph 1015.9mb 68f 67f
2:50am 6ft 6s 5s 27 31 mph 1016.2mb 68f 67f
1:50am 6ft 6s 5s 27 31 mph 1016.6mb 68f 67f
12:50am 5.5ft 5s 5s 27 34 mph 1016.5mb 68f 67f
Tue 07/22 11:50pm 5ft 5s 5s 25 31 mph 1016.8mb 68f 67f
10:50pm 5ft 5s 5s 25 29 mph 1016.9mb 68f 68f
9:50pm 5ft 5s 5s 25 31 mph 1016.9mb 69f 68f
8:50pm 5ft 5s 5s 25 27 mph 1016.7mb 69f 68f
7:50pm 4.5ft 5s 5s 22 29 mph 1016.5mb 69f 68f
6:50pm 4.5ft 5s 5s 22 27 mph 1016.7mb 69f 68f
5:50pm 4ft 11s 5s 20 22 mph 1017.2mb 69f 68f
3:50pm 4ft 11s 5s 18 20 mph 1017.9mb 69f 67f
2:50pm 3.5ft 10s 5s 20 22 mph 1018.2mb 69f 67f
1:50pm 3.5ft 11s 5s 20 22 mph 1018.5mb 69f 67f
12:50pm 3.5ft 10s 5s 16 18 mph 1019mb 69f 67f